M I D A S
Marine Information and Data Acquisition System
Tripno 1978 of the Zeeleeuw from 2010-10-21 07:17:02 to 2010-10-21 15:28:27
Back to CruiseResearch ActivitiesStationsMapUnderway DataData graphs

EquipmentUnitsComment
TimeDGPSUTC
LatitudeDGPSDM.mWGS84
LongitudeDGPSDM.mWGS84
TemperatureSBE03/SBE38deg celciusITS90
ConductivitySBE21S/mITS90
SalinitySBE21 Practical Salinity Units
ChlorophylAChelsea fluorimeterg/lCalibrated in Aceton
Missing or incorrect values are displayed as -999
Sea surface data collected by the RV Zeeleeuw from 2010-10-21 06:05:45 to 2010-10-21 15:34:58
Time Latitude Longitude Temperature Conductivity Salinity ChlorophylA
2010-10-21 06:06:50 51°13.663 2°55.962 17.0582 0.065787 0.373154 -0.478207
2010-10-21 06:07:50 51°13.663 2°55.961 17.0451 0.065787 0.373154 -0.443383
2010-10-21 06:08:50 51°13.663 2°55.96 17.0601 0.065787 0.37316 -0.408559
2010-10-21 06:09:49 51°13.663 2°55.96 17.0561 0.065787 0.373167 -0.478207
2010-10-21 06:10:49 51°13.663 2°55.96 17.0602 0.065787 0.373167 -0.443383
2010-10-21 06:11:50 51°13.662 2°55.96 17.064 0.065787 0.373173 -0.443383
2010-10-21 06:12:49 51°13.663 2°55.96 17.0862 0.065787 0.373179 -0.478207
2010-10-21 06:13:49 51°13.662 2°55.96 17.1086 0.065787 0.373186 -0.478207
2010-10-21 06:14:50 51°13.662 2°55.961 17.0643 0.065787 0.373186 -0.443383
2010-10-21 06:15:49 51°13.662 2°55.96 17.0738 0.065787 0.373186 -0.478207
2010-10-21 06:16:50 51°13.662 2°55.96 17.0732 0.065787 0.373192 -0.443383
2010-10-21 06:17:49 51°13.662 2°55.96 17.0825 0.065787 0.373192 -0.443383
2010-10-21 06:18:49 51°13.662 2°55.96 17.0607 0.065787 0.373198 -0.478207
2010-10-21 06:19:50 51°13.662 2°55.96 17.0534 0.065787 0.373192 -0.443383
2010-10-21 06:20:50 51°13.662 2°55.96 17.0631 0.065787 0.373205 -0.443383
2010-10-21 06:21:49 51°13.662 2°55.96 17.0637 0.065787 0.373198 -0.478207
2010-10-21 06:22:50 51°13.662 2°55.96 17.0979 0.065787 0.373205 -0.443383
2010-10-21 06:23:49 51°13.662 2°55.96 17.0656 0.065787 0.373205 -0.443383
2010-10-21 06:24:48 51°13.662 2°55.96 17.0835 0.065787 0.373192 -0.478207
2010-10-21 06:25:48 51°13.662 2°55.96 17.0896 0.065787 0.373198 -0.478207
2010-10-21 06:26:48 51°13.662 2°55.96 17.0699 0.065787 0.373205 -0.443383
2010-10-21 06:27:47 51°13.662 2°55.96 17.0804 0.065787 0.373205 -0.443383
2010-10-21 06:28:47 51°13.662 2°55.96 17.065 0.065787 0.373205 -0.443383
2010-10-21 06:29:46 51°13.662 2°55.96 17.0759 0.065787 0.373211 -0.443383
2010-10-21 06:30:46 51°13.662 2°55.96 17.0687 0.065787 0.373217 -0.408559
2010-10-21 06:31:46 51°13.662 2°55.96 17.0778 0.065787 0.373224 -0.443383
2010-10-21 06:32:46 51°13.662 2°55.96 17.0681 0.065787 0.37323 -0.443383
2010-10-21 06:33:46 51°13.663 2°55.96 17.0701 0.065787 0.373243 -0.478207
2010-10-21 06:34:46 51°13.662 2°55.962 17.0568 0.065787 0.373255 -0.443383
2010-10-21 06:35:46 51°13.662 2°55.962 17.0725 0.065787 0.373261 -0.443383
2010-10-21 06:36:46 51°13.664 2°55.96 17.0546 0.065787 0.37328 -0.443383
2010-10-21 06:37:46 51°13.662 2°55.961 17.047 0.065787 0.373287 -0.478207
2010-10-21 06:38:46 51°13.663 2°55.961 17.0562 0.065787 0.373299 -0.443383
2010-10-21 06:39:46 51°13.662 2°55.962 17.0605 0.065787 0.373312 -0.443383
2010-10-21 06:40:46 51°13.662 2°55.961 17.0679 0.065787 0.373325 -0.478207
2010-10-21 06:41:46 51°13.662 2°55.961 17.077 0.065787 0.373344 -0.443383
2010-10-21 06:42:46 51°13.662 2°55.961 17.0765 0.065683 0.372765 -0.443383
2010-10-21 06:43:46 51°13.662 2°55.96 17.063 0.065683 0.372791 -0.443383
2010-10-21 06:44:46 51°13.662 2°55.961 17.082 0.065683 0.372816 -0.443383
2010-10-21 06:45:46 51°13.662 2°55.96 17.0885 0.065683 0.372835 -0.443383
2010-10-21 06:46:47 51°13.662 2°55.96 17.0891 0.065683 0.372873 -0.478207
2010-10-21 06:47:46 51°13.663 2°55.96 17.0759 0.065683 0.372898 -0.443383
2010-10-21 06:48:46 51°13.661 2°55.96 17.0656 0.065683 0.37293 -0.443383
2010-10-21 06:49:46 51°13.662 2°55.96 17.0886 0.065683 0.372955 -0.443383
2010-10-21 06:50:46 51°13.662 2°55.96 17.0865 0.065683 0.372993 -0.443383
2010-10-21 06:51:46 51°13.663 2°55.96 17.0869 0.065683 0.373024 -0.443383
2010-10-21 06:52:46 51°13.663 2°55.96 17.0921 0.065683 0.373037 -0.408559
2010-10-21 06:53:47 51°13.663 2°55.96 17.0951 0.065683 0.373069 -0.443383
2010-10-21 06:54:46 51°13.663 2°55.96 17.1019 0.065683 0.373094 -0.478207
2010-10-21 06:55:46 51°13.662 2°55.96 17.1016 0.065579 0.372515 -0.443383
2010-10-21 06:56:46 51°13.66 2°55.961 17.108 0.065683 0.373151 -0.478207
2010-10-21 06:57:46 51°13.66 2°55.959 17.107 0.065579 0.372566 -0.478207
2010-10-21 06:58:46 51°13.662 2°55.96 17.1149 0.065579 0.372597 -0.443383
2010-10-21 06:59:46 51°13.662 2°55.96 17.1256 0.065579 0.372623 -0.443383
2010-10-21 07:00:46 51°13.662 2°55.96 17.1307 0.065579 0.372661 -0.408559
2010-10-21 07:01:46 51°13.661 2°55.961 17.1292 0.065579 0.372686 -0.443383
2010-10-21 07:02:46 51°13.661 2°55.961 17.132 0.065579 0.372718 -0.443383
2010-10-21 07:03:46 51°13.661 2°55.96 17.1388 0.065579 0.372743 -0.478207
2010-10-21 07:04:46 51°13.661 2°55.96 17.1446 0.065579 0.372781 -0.478207
2010-10-21 07:05:46 51°13.662 2°55.96 17.1463 0.065579 0.372806 -0.443383
2010-10-21 07:06:46 51°13.662 2°55.96 17.1506 0.065579 0.372838 -0.443383
2010-10-21 07:07:46 51°13.662 2°55.96 17.1518 0.065475 0.372271 -0.443383
2010-10-21 07:08:46 51°13.662 2°55.96 17.1642 0.065475 0.372303 -0.443383
2010-10-21 07:09:47 51°13.662 2°55.961 17.168 0.065475 0.372334 -0.478207
2010-10-21 07:10:46 51°13.662 2°55.961 17.1769 0.065475 0.372379 -0.443383
2010-10-21 07:11:46 51°13.662 2°55.961 17.1832 0.065475 0.372423 -0.478207
2010-10-21 07:12:46 51°13.662 2°55.961 17.1955 0.065475 0.372461 -0.443383
2010-10-21 07:13:46 51°13.663 2°55.959 17.2022 0.065475 0.372511 -0.443383
2010-10-21 07:14:46 51°13.662 2°55.959 17.2244 0.065475 0.372549 -0.478207
2010-10-21 07:15:46 51°13.663 2°55.96 17.2207 0.065475 0.372587 -0.478207
2010-10-21 07:16:46 51°13.663 2°55.96 17.2369 0.065475 0.372625 -0.443383
2010-10-21 07:17:46 51°13.663 2°55.96 17.235 0.065475 0.372651 -0.408559
2010-10-21 07:18:46 51°13.666 2°55.949 17.2037 0.065371 0.372083 -0.443383
2010-10-21 07:19:50 51°13.688 2°55.841 17.2531 0.065371 0.372115 -0.443383
2010-10-21 07:20:50 51°13.695 2°55.746 17.2606 0.065371 0.372134 -0.443383
2010-10-21 07:21:47 51°13.704 2°55.748 17.1842 0.065371 0.372147 -0.478207
2010-10-21 07:22:50 51°13.707 2°55.737 17.2942 0.065371 0.372134 -0.478207
2010-10-21 07:23:48 51°13.792 2°55.664 17.0973 0.065371 0.372191 -0.443383
2010-10-21 07:24:47 51°13.935 2°55.556 17.0574 0.065371 0.372229 -0.443383
2010-10-21 07:25:48 51°14.101 2°55.433 17.0845 0.065371 0.372216 -0.443383
2010-10-21 07:26:50 51°14.273 2°55.28 17.0405 0.065371 0.372204 -0.478207
2010-10-21 07:27:49 51°14.443 2°55.111 17.0528 0.065371 0.37233 -0.478207
2010-10-21 07:28:47 51°14.614 2°54.927 17.0726 0.065371 0.372495 -0.513031
2010-10-21 07:29:46 51°14.78 2°54.731 17.0324 0.065371 0.37247 -0.478207
2010-10-21 07:30:46 51°14.938 2°54.517 17.1052 0.065371 0.372514 -0.443383
2010-10-21 07:31:46 51°15.004 2°54.209 17.0334 0.065371 0.372508 -0.478207
2010-10-21 07:32:46 51°15.022 2°53.862 17.0768 0.065267 0.371997 -0.478207
2010-10-21 07:33:46 51°15.058 2°53.519 17.0645 0.065371 0.372457 -0.513031
2010-10-21 07:34:46 51°15.096 2°53.178 17.0751 0.065371 0.372686 -0.478207
2010-10-21 07:35:46 51°15.138 2°52.837 17.1104 0.065267 0.37194 -0.513031
2010-10-21 07:36:46 51°15.177 2°52.492 17.1118 0.065267 0.372048 -0.478207
2010-10-21 07:37:46 51°15.218 2°52.146 17.0992 0.065267 0.372117 -0.478207
2010-10-21 07:38:46 51°15.257 2°51.798 17.1541 0.065267 0.372003 -0.478207
2010-10-21 07:39:46 51°15.256 2°51.438 17.1451 0.065267 0.372575 -0.478207
2010-10-21 07:40:46 51°15.235 2°51.076 17.1554 0.065163 0.371555 -0.478207
2010-10-21 07:41:46 51°15.217 2°50.718 17.1728 0.065163 0.37134 -0.443383
2010-10-21 07:42:46 51°15.201 2°50.362 17.1729 0.065267 0.372594 -0.478207
2010-10-21 07:43:46 51°15.186 2°50.004 17.1891 0.065267 0.372562 -0.478207
2010-10-21 07:44:46 51°15.165 2°49.651 17.1959 0.065371 0.370315 -0.513031
2010-10-21 07:45:46 51°15.131 2°49.298 17.2121 0.065371 0.371049 -0.443383
2010-10-21 07:46:46 51°15.097 2°48.948 17.223 0.065371 0.372705 -0.443383
2010-10-21 07:47:46 51°15.063 2°48.598 17.2367 0.065475 0.37229 -0.478207
2010-10-21 07:48:46 51°15.035 2°48.246 17.2521 0.065475 0.373203 -0.478207
2010-10-21 07:49:46 51°15.007 2°47.895 17.2656 0.065475 0.372854 -0.478207
2010-10-21 07:50:46 51°14.976 2°47.548 17.2784 0.065579 0.373485 -0.443383
2010-10-21 07:51:46 51°14.945 2°47.203 17.2889 0.065683 0.373881 -0.478207
2010-10-21 07:52:46 51°14.908 2°46.861 17.2998 0.065683 0.374014 -0.478207
2010-10-21 07:53:46 51°14.863 2°46.522 17.3198 0.065683 0.372759 -0.478207
2010-10-21 07:54:46 51°14.816 2°46.18 17.3303 0.065683 0.372803 -0.478207
2010-10-21 07:55:46 51°14.77 2°45.836 17.3485 0.065787 0.373597 -0.443383
2010-10-21 07:56:46 51°14.73 2°45.489 17.3582 0.065787 0.372952 -0.478207
2010-10-21 07:57:46 51°14.696 2°45.137 17.3686 0.065787 0.374524 -0.478207
2010-10-21 07:58:46 51°14.667 2°44.784 17.3929 0.065787 0.373293 -0.478207
2010-10-21 07:59:46 51°14.63 2°44.433 17.3959 0.065787 0.373838 -0.443383
2010-10-21 08:00:46 51°14.596 2°44.082 17.4047 0.065787 0.374748 -0.443383
2010-10-21 08:01:46 51°14.556 2°43.73 17.4242 0.065787 0.373889 -0.443383
2010-10-21 08:02:46 51°14.502 2°43.384 17.4389 0.065787 0.374671 -0.478207
2010-10-21 08:03:46 51°14.431 2°43.044 17.4543 0.065787 0.374435 -0.443383
2010-10-21 08:04:46 51°14.341 2°42.714 17.463 0.065787 0.373388 -0.478207
2010-10-21 08:05:46 51°14.253 2°42.384 17.4859 0.065787 0.373908 -0.478207
2010-10-21 08:06:46 51°14.167 2°42.054 17.5 0.065787 0.37347 -0.443383
2010-10-21 08:07:46 51°14.078 2°41.73 17.4788 0.065787 0.374054 -0.443383
2010-10-21 08:08:46 51°13.996 2°41.404 17.5121 0.065787 0.374263 -0.443383
2010-10-21 08:09:46 51°13.908 2°41.083 17.5253 0.065787 0.37448 -0.443383
2010-10-21 08:10:46 51°13.827 2°40.755 17.5252 0.065787 0.37492 -0.443383
2010-10-21 08:11:46 51°13.735 2°40.437 17.5689 0.065787 0.374741 -0.478207
2010-10-21 08:12:46 51°13.627 2°40.129 17.5789 0.065683 0.374046 -0.443383
2010-10-21 08:13:46 51°13.509 2°39.83 17.5836 0.065683 0.373779 -0.443383
2010-10-21 08:14:46 51°13.375 2°39.548 17.616 0.065683 0.374365 -0.443383
2010-10-21 08:15:46 51°13.23 2°39.282 17.6192 0.065683 0.373804 -0.443383
2010-10-21 08:16:46 51°13.088 2°39.005 17.6387 0.065683 0.374333 -0.443383
2010-10-21 08:17:46 51°12.949 2°38.732 17.6573 0.065683 0.37441 -0.408559
2010-10-21 08:18:46 51°12.808 2°38.462 17.6532 0.065683 0.374703 -0.443383
2010-10-21 08:19:46 51°12.665 2°38.194 17.6812 0.065579 0.373263 -0.443383
2010-10-21 08:20:46 51°12.525 2°37.925 17.6871 0.065683 0.374212 -0.443383
2010-10-21 08:21:46 51°12.368 2°37.677 17.7105 0.065579 0.373784 -0.443383
2010-10-21 08:22:46 51°12.189 2°37.467 17.7239 0.065579 0.373899 -0.443383
2010-10-21 08:23:46 51°12.012 2°37.255 17.752 0.065579 0.373994 -0.443383
2010-10-21 08:24:46 51°11.832 2°37.049 17.7463 0.065579 0.373873 -0.408559
2010-10-21 08:25:46 51°11.651 2°36.837 17.7749 0.065579 0.373402 -0.443383
2010-10-21 08:26:46 51°11.477 2°36.617 17.7972 0.065579 0.374039 -0.443383
2010-10-21 08:27:46 51°11.301 2°36.407 17.7686 0.065579 0.373434 -0.408559
2010-10-21 08:28:46 51°11.115 2°36.219 17.811 0.065579 0.373599 -0.408559
2010-10-21 08:29:46 51°10.93 2°36.031 17.8294 0.065579 0.373606 -0.478207
2010-10-21 08:30:46 51°10.748 2°35.84 17.8039 0.065579 0.373746 -0.443383
2010-10-21 08:31:46 51°10.565 2°35.648 17.8441 0.065579 0.373886 -0.443383
2010-10-21 08:32:46 51°10.38 2°35.459 17.8495 0.065475 0.373159 -0.443383
2010-10-21 08:33:46 51°10.198 2°35.268 17.8898 0.065475 0.373713 -0.443383
2010-10-21 08:34:46 51°10.014 2°35.078 17.8826 0.065475 0.373509 -0.443383
2010-10-21 08:35:46 51°9.831 2°34.89 17.8951 0.065475 0.373362 -0.408559
2010-10-21 08:36:46 51°9.651 2°34.698 17.8531 0.065475 0.373502 -0.443383
2010-10-21 08:37:46 51°9.503 2°34.822 17.9284 0.065371 0.373169 -0.443383
2010-10-21 08:38:46 51°9.482 2°35.153 17.9317 0.065371 0.373348 -0.443383
2010-10-21 08:39:46 51°9.415 2°35.475 17.924 0.065371 0.373776 -0.408559
2010-10-21 08:40:46 51°9.421 2°35.797 17.9585 0.065371 0.372953 -0.408559
2010-10-21 08:41:46 51°9.477 2°36.115 17.9698 0.065371 0.373552 -0.443383
2010-10-21 08:42:46 51°9.52 2°36.438 17.9907 0.065371 0.373488 -0.408559
2010-10-21 08:43:46 51°9.562 2°36.765 18.0023 0.065371 0.373227 -0.408559
2010-10-21 08:44:46 51°9.568 2°37.102 17.9942 0.065267 0.372518 -0.408559
2010-10-21 08:45:46 51°9.566 2°37.411 18.0165 0.065267 0.372645 -0.443383
2010-10-21 08:46:46 51°9.52 2°37.557 18.0428 0.065267 0.37318 -0.408559
2010-10-21 08:47:46 51°9.454 2°37.511 18.0562 0.065267 0.373225 -0.443383
2010-10-21 08:48:46 51°9.449 2°37.473 18.0551 0.065267 0.373334 -0.443383
2010-10-21 08:49:50 51°9.448 2°37.482 18.0695 0.065267 0.373449 -0.443383
2010-10-21 08:50:50 51°9.445 2°37.492 18.0796 0.065267 0.373551 -0.408559
2010-10-21 08:51:48 51°9.442 2°37.505 18.0937 0.065267 0.373647 -0.478207
2010-10-21 08:52:46 51°9.439 2°37.519 18.1062 0.065267 0.373743 -0.443383
2010-10-21 08:53:46 51°9.437 2°37.533 18.1545 0.065267 0.373872 -0.443383
2010-10-21 08:54:46 51°9.436 2°37.547 18.1704 0.065267 0.373891 -0.408559
2010-10-21 08:55:46 51°9.435 2°37.561 18.1882 0.065267 0.374006 -0.443383
2010-10-21 08:56:46 51°9.433 2°37.577 18.2059 0.065267 0.374122 -0.408559
2010-10-21 08:57:46 51°9.428 2°37.594 18.2231 0.065163 0.373756 -0.443383
2010-10-21 08:58:46 51°9.424 2°37.61 18.2354 0.065163 0.373698 -0.443383
2010-10-21 08:59:46 51°9.423 2°37.626 18.2548 0.065163 0.373705 -0.443383
2010-10-21 09:00:46 51°9.425 2°37.643 18.2612 0.065163 0.373763 -0.443383
2010-10-21 09:01:46 51°9.429 2°37.661 18.2809 0.065163 0.373718 -0.443383
2010-10-21 09:02:46 51°9.434 2°37.68 18.2852 0.065163 0.374033 -0.443383
2010-10-21 09:03:46 51°9.437 2°37.699 18.3057 0.065163 0.374123 -0.408559
2010-10-21 09:04:46 51°9.442 2°37.717 18.3321 0.065163 0.373801 -0.443383
2010-10-21 09:05:46 51°9.449 2°37.737 18.3399 0.065163 0.373955 -0.408559
2010-10-21 09:06:46 51°9.451 2°37.759 18.3499 0.065163 0.374123 -0.408559
2010-10-21 09:07:46 51°9.453 2°37.782 18.3553 0.065163 0.374161 -0.408559
2010-10-21 09:08:46 51°9.456 2°37.803 18.3939 0.065163 0.374123 -0.408559
2010-10-21 09:09:46 51°9.46 2°37.827 18.3807 0.065163 0.374239 -0.443383
2010-10-21 09:10:46 51°9.491 2°37.834 18.4197 0.065163 0.3742 -0.443383
2010-10-21 09:11:46 51°9.631 2°37.799 18.3717 0.065163 0.374387 -0.408559
2010-10-21 09:12:46 51°9.834 2°37.748 18.4091 0.065163 0.374393 -0.443383
2010-10-21 09:13:46 51°9.986 2°37.568 18.4413 0.065163 0.3744 -0.408559
2010-10-21 09:14:46 51°10.031 2°37.47 18.4598 0.065267 0.37465 -0.443383
2010-10-21 09:15:46 51°10.037 2°37.464 18.4805 0.065163 0.373519 -0.408559
2010-10-21 09:16:46 51°10.045 2°37.48 18.5099 0.065267 0.374998 -0.408559
2010-10-21 09:17:49 51°10.056 2°37.503 18.5318 0.065267 0.375147 -0.443383
2010-10-21 09:18:49 51°10.081 2°37.432 18.5302 0.065267 0.374901 -0.408559
2010-10-21 09:19:47 51°10.143 2°37.19 18.5333 0.065267 0.375244 -0.408559
2010-10-21 09:20:46 51°10.217 2°36.918 18.5652 0.065267 0.375185 -0.408559
2010-10-21 09:21:46 51°10.287 2°36.644 18.5894 0.065267 0.375399 -0.408559
2010-10-21 09:22:46 51°10.356 2°36.368 18.6094 0.065267 0.375192 -0.408559
2010-10-21 09:23:46 51°10.382 2°36.225 18.6236 0.065267 0.375444 -0.408559
2010-10-21 09:24:46 51°10.403 2°36.221 18.6135 0.065267 0.375665 -0.443383
2010-10-21 09:25:46 51°10.411 2°36.256 18.619 0.065267 0.375587 -0.408559
2010-10-21 09:26:46 51°10.414 2°36.295 18.6421 0.065267 0.375561 -0.408559
2010-10-21 09:27:46 51°10.416 2°36.335 18.6629 0.065267 0.37571 -0.408559
2010-10-21 09:28:46 51°10.417 2°36.374 18.6877 0.065267 0.375814 -0.408559
2010-10-21 09:29:46 51°10.418 2°36.414 18.7089 0.065267 0.375911 -0.408559
2010-10-21 09:30:46 51°10.419 2°36.455 18.7244 0.065267 0.375788 -0.373735
2010-10-21 09:31:46 51°10.42 2°36.496 18.7496 0.065267 0.375574 -0.408559
2010-10-21 09:32:46 51°10.422 2°36.539 18.7622 0.065267 0.376132 -0.443383
2010-10-21 09:33:46 51°10.423 2°36.581 18.7918 0.065267 0.376022 -0.408559
2010-10-21 09:34:46 51°10.423 2°36.622 18.8073 0.065267 0.376315 -0.478207
2010-10-21 09:35:46 51°10.426 2°36.666 18.8365 0.065163 0.375578 -0.443383
2010-10-21 09:36:46 51°10.459 2°36.659 18.8502 0.065163 0.375571 -0.443383
2010-10-21 09:37:46 51°10.443 2°36.614 18.8536 0.065163 0.375493 -0.443383
2010-10-21 09:38:46 51°10.29 2°36.638 18.8178 0.065163 0.375883 -0.408559
2010-10-21 09:39:46 51°10.099 2°36.801 18.8505 0.065163 0.375396 -0.408559
2010-10-21 09:40:46 51°9.928 2°37.005 18.874 0.065059 0.375536 -0.443383
2010-10-21 09:41:46 51°9.78 2°37.193 18.905 0.065059 0.374822 -0.408559
2010-10-21 09:42:46 51°9.706 2°37.249 18.916 0.065059 0.374531 -0.443383
2010-10-21 09:43:46 51°9.66 2°37.255 18.8958 0.065059 0.375367 -0.408559
2010-10-21 09:44:46 51°9.62 2°37.225 18.9159 0.065059 0.375452 -0.443383
2010-10-21 09:45:46 51°9.593 2°37.174 18.943 0.065059 0.375445 -0.408559
2010-10-21 09:46:46 51°9.57 2°37.11 18.9528 0.064955 0.37526 -0.408559
2010-10-21 09:47:46 51°9.539 2°37.054 18.9772 0.064955 0.374591 -0.408559
2010-10-21 09:48:46 51°9.501 2°37.008 18.9964 0.064955 0.374961 -0.408559
2010-10-21 09:49:46 51°9.472 2°36.953 19.0182 0.064955 0.374384 -0.408559
2010-10-21 09:50:46 51°9.446 2°36.888 19.0357 0.064955 0.374877 -0.373735
2010-10-21 09:51:46 51°9.432 2°36.814 19.0399 0.064955 0.374883 -0.408559
2010-10-21 09:52:46 51°9.422 2°36.737 19.0576 0.064851 0.374659 -0.443383
2010-10-21 09:53:46 51°9.412 2°36.66 19.0682 0.064851 0.374561 -0.443383
2010-10-21 09:54:46 51°9.4 2°36.587 19.088 0.064851 0.374639 -0.443383
2010-10-21 09:55:46 51°9.389 2°36.513 19.1094 0.064851 0.374737 -0.443383
2010-10-21 09:56:46 51°9.379 2°36.438 19.1207 0.064851 0.374932 -0.408559
2010-10-21 09:57:46 51°9.367 2°36.374 19.1407 0.064851 0.374925 -0.408559
2010-10-21 09:58:46 51°9.356 2°36.303 19.16 0.064851 0.374574 -0.408559
2010-10-21 09:59:46 51°9.327 2°36.258 19.1725 0.064851 0.374893 -0.408559
2010-10-21 10:00:46 51°9.285 2°36.221 19.1951 0.064851 0.374698 -0.408559
2010-10-21 10:01:46 51°9.242 2°36.188 19.2145 0.064851 0.375056 -0.408559
2010-10-21 10:02:46 51°9.198 2°36.158 19.236 0.064851 0.374991 -0.408559
2010-10-21 10:03:46 51°9.153 2°36.129 19.2528 0.064851 0.374938 -0.408559
2010-10-21 10:04:46 51°9.109 2°36.103 19.2703 0.064851 0.374646 -0.443383
2010-10-21 10:05:46 51°9.068 2°36.068 19.2873 0.064851 0.375153 -0.408559
2010-10-21 10:06:46 51°9.033 2°36.019 19.3056 0.064747 0.374304 -0.408559
2010-10-21 10:07:46 51°9.01 2°35.955 19.3146 0.064747 0.374297 -0.408559
2010-10-21 10:08:46 51°9.001 2°35.893 19.3328 0.064851 0.374886 -0.408559
2010-10-21 10:09:46 51°9.009 2°35.844 19.334 0.064851 0.375114 -0.443383
2010-10-21 10:10:46 51°9.041 2°35.813 19.3554 0.064851 0.375127 -0.443383
2010-10-21 10:11:46 51°9.102 2°35.826 19.3596 0.064851 0.375062 -0.443383
2010-10-21 10:12:46 51°9.157 2°35.873 19.3697 0.064851 0.375114 -0.408559
2010-10-21 10:13:46 51°9.217 2°35.922 19.3965 0.064851 0.375284 -0.443383
2010-10-21 10:14:46 51°9.319 2°35.974 19.4153 0.064851 0.37548 -0.408559
2010-10-21 10:15:46 51°9.399 2°36.024 19.4273 0.064747 0.374714 -0.408559
2010-10-21 10:16:46 51°9.442 2°36.068 19.442 0.064851 0.375558 -0.443383
2010-10-21 10:17:46 51°9.474 2°36.113 19.4548 0.064747 0.374968 -0.408559
2010-10-21 10:18:46 51°9.496 2°36.166 19.47 0.064747 0.374923 -0.443383
2010-10-21 10:19:46 51°9.526 2°36.221 19.4831 0.064747 0.375164 -0.408559
2010-10-21 10:20:46 51°9.614 2°36.225 19.4996 0.064747 0.375203 -0.408559
2010-10-21 10:21:46 51°9.722 2°36.122 19.5122 0.064747 0.375308 -0.408559
2010-10-21 10:22:46 51°9.835 2°35.988 19.5139 0.064747 0.375504 -0.408559
2010-10-21 10:23:46 51°10.001 2°35.942 19.5396 0.064747 0.375249 -0.408559
2010-10-21 10:24:46 51°10.195 2°35.971 19.5555 0.064643 0.37507 -0.408559
2010-10-21 10:25:46 51°10.39 2°36.06 19.5734 0.064643 0.375313 -0.443383
2010-10-21 10:26:46 51°10.584 2°36.172 19.592 0.064643 0.375156 -0.408559
2010-10-21 10:27:46 51°10.772 2°36.279 19.6103 0.064643 0.374183 -0.408559
2010-10-21 10:28:46 51°10.955 2°36.388 19.6245 0.064643 0.374796 -0.443383
2010-10-21 10:29:46 51°11.104 2°36.476 19.5906 0.064643 0.375647 -0.408559
2010-10-21 10:30:46 51°11.184 2°36.528 19.5541 0.064643 0.375621 -0.408559
2010-10-21 10:31:46 51°11.251 2°36.579 19.5887 0.064643 0.375326 -0.408559
2010-10-21 10:32:46 51°11.412 2°36.713 19.6428 0.064643 0.375516 -0.443383
2010-10-21 10:33:46 51°11.617 2°36.881 19.662 0.064539 0.375095 -0.443383
2010-10-21 10:34:46 51°11.836 2°36.983 19.6798 0.064539 0.375173 -0.443383
2010-10-21 10:35:46 51°12.049 2°37.064 19.6904 0.064539 0.374964 -0.443383
2010-10-21 10:36:46 51°12.261 2°37.184 19.7108 0.064539 0.374924 -0.408559
2010-10-21 10:37:46 51°12.47 2°37.32 19.7218 0.064539 0.375601 -0.443383
2010-10-21 10:38:46 51°12.683 2°37.449 19.7375 0.064434 0.374156 -0.408559
2010-10-21 10:39:46 51°12.899 2°37.55 19.7449 0.064434 0.374588 -0.408559
2010-10-21 10:40:46 51°13.112 2°37.609 19.7603 0.064539 0.375042 -0.408559
2010-10-21 10:41:46 51°13.332 2°37.631 19.7655 0.064539 0.37562 -0.408559
2010-10-21 10:42:46 51°13.545 2°37.596 19.782 0.064539 0.375574 -0.443383
2010-10-21 10:43:46 51°13.748 2°37.512 19.7975 0.064643 0.375654 -0.408559
2010-10-21 10:44:46 51°13.94 2°37.384 19.8155 0.064643 0.376082 -0.408559
2010-10-21 10:45:46 51°14.131 2°37.257 19.8303 0.064643 0.376075 -0.443383
2010-10-21 10:46:46 51°14.324 2°37.132 19.8427 0.064643 0.376207 -0.408559
2010-10-21 10:47:46 51°14.515 2°37.005 19.8572 0.064643 0.375483 -0.408559
2010-10-21 10:48:46 51°14.71 2°36.893 19.8718 0.064643 0.375647 -0.443383
2010-10-21 10:49:46 51°14.911 2°36.795 19.8882 0.064643 0.376332 -0.443383
2010-10-21 10:50:46 51°15.111 2°36.695 19.9046 0.064643 0.376715 -0.443383
2010-10-21 10:51:46 51°15.313 2°36.594 19.916 0.064643 0.376378 -0.443383
2010-10-21 10:52:46 51°15.516 2°36.485 19.933 0.064539 0.376069 -0.408559
2010-10-21 10:53:46 51°15.719 2°36.38 19.9535 0.064539 0.375923 -0.443383
2010-10-21 10:54:46 51°15.924 2°36.269 19.969 0.064539 0.376135 -0.408559
2010-10-21 10:55:46 51°16.135 2°36.169 19.9792 0.064539 0.37626 -0.443383
2010-10-21 10:56:46 51°16.343 2°36.064 19.9953 0.064434 0.375554 -0.443383
2010-10-21 10:57:46 51°16.549 2°35.954 20.011 0.064434 0.375719 -0.408559
2010-10-21 10:58:46 51°16.75 2°35.844 20.0178 0.064434 0.375534 -0.373735
2010-10-21 10:59:46 51°16.953 2°35.734 20.028 0.064434 0.375297 -0.408559
2010-10-21 11:00:46 51°17.15 2°35.614 20.0375 0.064434 0.37531 -0.443383
2010-10-21 11:01:46 51°17.349 2°35.507 20.049 0.064435 0.37591 -0.408559
2010-10-21 11:02:46 51°17.543 2°35.403 20.0664 0.064434 0.375442 -0.443383
2010-10-21 11:03:46 51°17.741 2°35.303 20.0777 0.064435 0.376049 -0.443383
2010-10-21 11:04:46 51°17.945 2°35.202 20.0406 0.064435 0.375844 -0.443383
2010-10-21 11:05:46 51°18.141 2°35.092 20.0986 0.064434 0.375739 -0.408559
2010-10-21 11:06:46 51°18.346 2°34.99 20.1107 0.064435 0.376433 -0.408559
2010-10-21 11:07:47 51°18.548 2°34.888 20.1256 0.064435 0.375963 -0.443383
2010-10-21 11:08:46 51°18.746 2°34.778 20.1393 0.064434 0.37558 -0.408559
2010-10-21 11:09:46 51°18.948 2°34.663 20.151 0.064435 0.376281 -0.408559
2010-10-21 11:10:46 51°19.146 2°34.546 20.1618 0.064435 0.376082 -0.408559
2010-10-21 11:11:46 51°19.345 2°34.443 20.1709 0.064435 0.375864 -0.408559
2010-10-21 11:12:46 51°19.548 2°34.34 20.1803 0.064435 0.376281 -0.443383
2010-10-21 11:13:46 51°19.751 2°34.233 20.1815 0.064435 0.375871 -0.408559
2010-10-21 11:14:46 51°19.961 2°34.122 20.2113 0.064435 0.375904 -0.443383
2010-10-21 11:15:46 51°20.17 2°34.009 20.2282 0.064435 0.376553 -0.443383
2010-10-21 11:16:46 51°20.376 2°33.894 20.2424 0.064434 0.375561 -0.408559
2010-10-21 11:17:46 51°20.586 2°33.78 20.2541 0.064435 0.37597 -0.408559
2010-10-21 11:18:46 51°20.795 2°33.679 20.2621 0.06433 0.375158 -0.443383
2010-10-21 11:19:46 51°21.002 2°33.573 20.2793 0.06433 0.375574 -0.443383
2010-10-21 11:20:46 51°21.204 2°33.459 20.2953 0.06433 0.375547 -0.408559
2010-10-21 11:21:46 51°21.407 2°33.343 20.2661 0.06433 0.375547 -0.443383
2010-10-21 11:22:46 51°21.605 2°33.224 20.3022 0.064226 0.375269 -0.443383
2010-10-21 11:23:46 51°21.805 2°33.112 20.3196 0.064226 0.374708 -0.443383
2010-10-21 11:24:46 51°22.004 2°32.999 20.3415 0.064226 0.375157 -0.443383
2010-10-21 11:25:46 51°22.203 2°32.889 20.3615 0.064226 0.375309 -0.478207
2010-10-21 11:26:46 51°22.404 2°32.776 20.3792 0.064226 0.375302 -0.408559
2010-10-21 11:27:46 51°22.601 2°32.661 20.3704 0.064226 0.374794 -0.443383
2010-10-21 11:28:46 51°22.802 2°32.547 20.3964 0.064226 0.375739 -0.478207
2010-10-21 11:29:47 51°23.013 2°32.443 20.3662 0.064226 0.375342 -0.408559
2010-10-21 11:30:46 51°23.214 2°32.344 20.3829 0.064226 0.374913 -0.443383
2010-10-21 11:31:46 51°23.421 2°32.245 20.4223 0.064226 0.375369 -0.443383
2010-10-21 11:32:46 51°23.619 2°32.128 20.4387 0.064122 0.374733 -0.478207
2010-10-21 11:33:46 51°23.823 2°32.018 20.4232 0.064122 0.374846 -0.408559
2010-10-21 11:34:46 51°24.022 2°31.903 20.4434 0.064122 0.374958 -0.443383
2010-10-21 11:35:46 51°24.212 2°31.758 19.281 0.064122 0.375355 -0.443383
2010-10-21 11:36:46 51°24.398 2°31.598 18.9734 0.064122 0.375018 -0.443383
2010-10-21 11:37:46 51°24.586 2°31.442 19.332 0.064018 0.373842 -0.443383
2010-10-21 11:38:46 51°24.774 2°31.282 19.4326 0.064018 0.374125 -0.443383
2010-10-21 11:39:46 51°24.963 2°31.124 19.5072 0.064018 0.374587 -0.478207
2010-10-21 11:40:46 51°25.151 2°30.966 19.5254 0.064018 0.373907 -0.443383
2010-10-21 11:41:46 51°25.346 2°30.821 19.6463 0.064018 0.374164 -0.443383
2010-10-21 11:42:46 51°25.536 2°30.667 19.5276 0.064018 0.374276 -0.443383
2010-10-21 11:43:46 51°25.73 2°30.512 19.5809 0.064018 0.374065 -0.478207
2010-10-21 11:44:46 51°25.918 2°30.357 19.7266 0.064018 0.374481 -0.443383
2010-10-21 11:45:46 51°26.104 2°30.195 19.8223 0.063914 0.373463 -0.443383
2010-10-21 11:46:46 51°26.321 2°30.223 19.7087 0.063914 0.373398 -0.478207
2010-10-21 11:47:46 51°26.508 2°30.438 19.8561 0.063914 0.373516 -0.443383
2010-10-21 11:48:46 51°26.607 2°30.79 19.8394 0.063914 0.373714 -0.443383
2010-10-21 11:49:46 51°26.686 2°31.16 19.7189 0.063914 0.37347 -0.408559
2010-10-21 11:50:46 51°26.764 2°31.535 19.7809 0.063914 0.373496 -0.408559
2010-10-21 11:51:46 51°26.837 2°31.91 19.6573 0.063914 0.373384 -0.443383
2010-10-21 11:52:46 51°26.899 2°32.285 19.8729 0.063914 0.374195 -0.478207
2010-10-21 11:53:46 51°26.957 2°32.669 19.8073 0.063914 0.373727 -0.443383
2010-10-21 11:54:46 51°27.024 2°33.05 19.8245 0.063914 0.373911 -0.443383
2010-10-21 11:55:46 51°27.096 2°33.44 19.8243 0.063914 0.373615 -0.443383
2010-10-21 11:56:46 51°27.155 2°33.832 19.9305 0.063914 0.374136 -0.478207
2010-10-21 11:57:46 51°27.219 2°34.221 19.8673 0.063914 0.374261 -0.443383
2010-10-21 11:58:46 51°27.27 2°34.609 19.8058 0.063914 0.373556 -0.408559
2010-10-21 11:59:46 51°27.329 2°34.984 19.9287 0.063914 0.373549 -0.443383
2010-10-21 12:00:46 51°27.383 2°35.366 19.8574 0.063914 0.373477 -0.443383
2010-10-21 12:01:46 51°27.435 2°35.745 19.8215 0.063914 0.373681 -0.443383
2010-10-21 12:02:46 51°27.491 2°36.12 19.828 0.063914 0.373516 -0.443383
2010-10-21 12:03:46 51°27.556 2°36.49 19.7223 0.063914 0.373911 -0.443383
2010-10-21 12:04:46 51°27.618 2°36.853 19.9763 0.064018 0.374422 -0.478207
2010-10-21 12:05:46 51°27.673 2°37.224 19.9467 0.063914 0.373483 -0.443383
2010-10-21 12:06:46 51°27.725 2°37.6 19.8695 0.063914 0.373588 -0.443383
2010-10-21 12:07:46 51°27.797 2°37.969 19.9794 0.063914 0.373865 -0.443383
2010-10-21 12:08:46 51°27.838 2°38.352 19.8735 0.064018 0.374759 -0.478207
2010-10-21 12:09:46 51°27.854 2°38.734 20.0168 0.063914 0.373562 -0.443383
2010-10-21 12:10:46 51°27.849 2°39.112 19.9863 0.063914 0.373602 -0.478207
2010-10-21 12:11:46 51°27.824 2°39.485 19.9934 0.063914 0.374123 -0.443383
2010-10-21 12:12:46 51°27.791 2°39.857 20.0634 0.064018 0.374673 -0.443383
2010-10-21 12:13:46 51°27.759 2°40.231 20.0955 0.063914 0.374017 -0.478207
2010-10-21 12:14:46 51°27.724 2°40.599 19.9289 0.063914 0.374096 -0.478207
2010-10-21 12:15:46 51°27.688 2°40.972 19.806 0.063914 0.373654 -0.408559
2010-10-21 12:16:46 51°27.656 2°41.348 20.0513 0.063914 0.373549 -0.443383
2010-10-21 12:17:46 51°27.617 2°41.719 20.0272 0.063914 0.373667 -0.443383
2010-10-21 12:18:46 51°27.578 2°42.092 20.0142 0.063914 0.373641 -0.513031
2010-10-21 12:19:46 51°27.545 2°42.468 19.968 0.063914 0.374394 -0.443383
2010-10-21 12:20:46 51°27.509 2°42.838 20.0728 0.063914 0.373839 -0.443383
2010-10-21 12:21:46 51°27.478 2°43.208 20.0169 0.063914 0.373602 -0.443383
2010-10-21 12:22:46 51°27.536 2°43.58 20.1102 0.063914 0.374057 -0.408559
2010-10-21 12:23:46 51°27.65 2°43.927 20.0436 0.063914 0.373958 -0.443383
2010-10-21 12:24:46 51°27.778 2°44.262 20.1053 0.063914 0.373747 -0.443383
2010-10-21 12:25:46 51°27.92 2°44.586 20.1028 0.063914 0.373964 -0.443383
2010-10-21 12:26:46 51°28.053 2°44.915 20.1613 0.063914 0.373714 -0.443383
2010-10-21 12:27:46 51°28.175 2°45.244 20.1521 0.064018 0.374507 -0.443383
2010-10-21 12:28:46 51°28.305 2°45.566 20.1607 0.064018 0.374336 -0.443383
2010-10-21 12:29:46 51°28.425 2°45.9 20.0937 0.064018 0.374197 -0.478207
2010-10-21 12:30:46 51°28.534 2°46.241 20.1118 0.064018 0.374712 -0.443383
2010-10-21 12:31:46 51°28.65 2°46.574 20.1626 0.064018 0.374283 -0.478207
2010-10-21 12:32:46 51°28.793 2°46.874 20.1604 0.064018 0.374898 -0.478207
2010-10-21 12:33:46 51°28.937 2°47.181 20.1513 0.064018 0.374481 -0.443383
2010-10-21 12:34:46 51°29.059 2°47.51 20.0759 0.064018 0.374118 -0.443383
2010-10-21 12:35:46 51°29.186 2°47.838 20.1322 0.064018 0.374342 -0.478207
2010-10-21 12:36:46 51°29.308 2°48.17 20.1924 0.064018 0.37425 -0.513031
2010-10-21 12:37:46 51°29.443 2°48.495 20.1819 0.064018 0.374349 -0.443383
2010-10-21 12:38:46 51°29.57 2°48.822 20.1176 0.064018 0.374316 -0.478207
2010-10-21 12:39:46 51°29.702 2°49.141 20.2103 0.064018 0.374501 -0.443383
2010-10-21 12:40:46 51°29.853 2°49.441 20.2505 0.064018 0.374514 -0.478207
2010-10-21 12:41:46 51°29.985 2°49.769 20.2021 0.064018 0.374752 -0.478207
2010-10-21 12:42:46 51°30.112 2°50.091 20.2424 0.064018 0.374679 -0.478207
2010-10-21 12:43:46 51°30.248 2°50.407 20.2011 0.064018 0.3746 -0.443383
2010-10-21 12:44:46 51°30.377 2°50.726 20.0803 0.064018 0.374964 -0.478207
2010-10-21 12:45:46 51°30.499 2°51.058 20.2768 0.064018 0.374349 -0.408559
2010-10-21 12:46:46 51°30.61 2°51.391 20.265 0.064122 0.37515 -0.443383
2010-10-21 12:47:46 51°30.72 2°51.723 20.1799 0.064122 0.374984 -0.443383
2010-10-21 12:48:46 51°30.829 2°52.059 20.2601 0.064122 0.374588 -0.478207
2010-10-21 12:49:46 51°30.945 2°52.391 20.3184 0.064122 0.374813 -0.443383
2010-10-21 12:50:46 51°31.074 2°52.713 20.3078 0.064122 0.374951 -0.478207
2010-10-21 12:51:46 51°31.193 2°53.047 20.2756 0.064122 0.374714 -0.478207
2010-10-21 12:52:46 51°31.314 2°53.38 20.2426 0.064122 0.374575 -0.443383
2010-10-21 12:53:46 51°31.426 2°53.72 20.3095 0.064122 0.374865 -0.443383
2010-10-21 12:54:46 51°31.527 2°54.07 20.3155 0.064122 0.374806 -0.443383
2010-10-21 12:55:46 51°31.613 2°54.432 20.2901 0.064122 0.374674 -0.443383
2010-10-21 12:56:46 51°31.693 2°54.793 20.2598 0.064122 0.374998 -0.478207
2010-10-21 12:57:46 51°31.774 2°55.146 20.3128 0.064122 0.374747 -0.443383
2010-10-21 12:58:46 51°31.87 2°55.491 20.3543 0.064122 0.374628 -0.478207
2010-10-21 12:59:46 51°31.935 2°55.85 20.3211 0.064122 0.374338 -0.478207
2010-10-21 13:00:46 51°31.993 2°56.213 20.3578 0.064122 0.37472 -0.408559
2010-10-21 13:01:46 51°32.044 2°56.58 20.3608 0.064122 0.37443 -0.443383
2010-10-21 13:02:46 51°32.076 2°56.947 20.3639 0.064122 0.374377 -0.443383
2010-10-21 13:03:46 51°32.116 2°57.313 20.3451 0.064122 0.374714 -0.443383
2010-10-21 13:04:46 51°32.281 2°57.572 20.3438 0.064122 0.374826 -0.443383
2010-10-21 13:05:46 51°32.503 2°57.61 20.3668 0.064122 0.374562 -0.478207
2010-10-21 13:06:47 51°32.725 2°57.549 20.3363 0.064122 0.374542 -0.478207
2010-10-21 13:07:46 51°32.941 2°57.579 20.3832 0.064226 0.374999 -0.443383
2010-10-21 13:08:47 51°33.121 2°57.826 20.4326 0.064122 0.374648 -0.443383
2010-10-21 13:09:46 51°33.292 2°58.081 20.4316 0.064122 0.374423 -0.443383
2010-10-21 13:10:46 51°33.438 2°58.377 20.3233 0.064122 0.374206 -0.443383
2010-10-21 13:11:46 51°33.576 2°58.683 20.4274 0.064122 0.374305 -0.478207
2010-10-21 13:12:46 51°33.701 2°59.004 20.3401 0.064122 0.374219 -0.478207
2010-10-21 13:13:46 51°33.812 2°59.33 20.2907 0.064122 0.374147 -0.443383
2010-10-21 13:14:46 51°33.919 2°59.666 20.4056 0.064226 0.375038 -0.373735
2010-10-21 13:15:46 51°34.02 3°0.006 20.4552 0.064226 0.374906 -0.443383
2010-10-21 13:16:46 51°34.111 3°0.346 20.4361 0.064226 0.375084 -0.443383
2010-10-21 13:17:46 51°34.193 3°0.69 20.4151 0.064226 0.3749 -0.443383
2010-10-21 13:18:46 51°34.278 3°1.036 20.4618 0.064226 0.374781 -0.443383
2010-10-21 13:19:46 51°34.382 3°1.371 20.3511 0.064226 0.375032 -0.443383
2010-10-21 13:20:46 51°34.362 3°1.689 20.4513 0.064226 0.375025 -0.443383
2010-10-21 13:21:46 51°34.196 3°1.717 20.473 0.064226 0.374873 -0.443383
2010-10-21 13:22:46 51°34.026 3°1.659 20.4241 0.06433 0.375263 -0.443383
2010-10-21 13:23:46 51°33.857 3°1.604 20.4709 0.06433 0.374987 -0.443383
2010-10-21 13:24:47 51°33.685 3°1.552 20.4741 0.06433 0.375461 -0.443383
2010-10-21 13:25:47 51°33.517 3°1.495 20.5009 0.06433 0.375607 -0.408559
2010-10-21 13:26:46 51°33.352 3°1.429 20.5179 0.06433 0.375164 -0.443383
2010-10-21 13:27:46 51°33.187 3°1.368 20.4919 0.06433 0.375521 -0.443383
2010-10-21 13:28:46 51°33.02 3°1.303 20.5104 0.06433 0.374861 -0.478207
2010-10-21 13:29:46 51°32.848 3°1.238 20.5213 0.06433 0.374934 -0.478207
2010-10-21 13:30:46 51°32.676 3°1.169 20.545 0.06433 0.37527 -0.478207
2010-10-21 13:31:46 51°32.502 3°1.087 20.5619 0.06433 0.375435 -0.443383
2010-10-21 13:32:46 51°32.329 3°1.009 20.5295 0.06433 0.375382 -0.443383
2010-10-21 13:33:46 51°32.16 3°0.95 20.5727 0.06433 0.374954 -0.478207
2010-10-21 13:34:46 51°32.002 3°0.837 20.592 0.06433 0.37556 -0.478207
2010-10-21 13:35:46 51°31.841 3°0.721 20.6203 0.06433 0.375402 -0.478207
2010-10-21 13:36:46 51°31.674 3°0.621 20.5932 0.06433 0.374783 -0.443383
2010-10-21 13:37:46 51°31.52 3°0.481 20.6116 0.06433 0.375303 -0.443383
2010-10-21 13:38:46 51°31.367 3°0.327 20.6411 0.06433 0.375382 -0.443383
2010-10-21 13:39:46 51°31.208 3°0.187 20.6547 0.06433 0.375441 -0.478207
2010-10-21 13:40:46 51°31.052 3°0.055 20.6398 0.06433 0.374901 -0.478207
2010-10-21 13:41:46 51°30.899 2°59.917 20.6631 0.06433 0.37523 -0.443383
2010-10-21 13:42:46 51°30.741 2°59.782 20.6665 0.06433 0.375197 -0.478207
2010-10-21 13:43:46 51°30.584 2°59.633 20.6876 0.06433 0.375342 -0.478207
2010-10-21 13:44:46 51°30.425 2°59.498 20.6761 0.06433 0.375059 -0.478207
2010-10-21 13:45:46 51°30.267 2°59.355 20.693 0.06433 0.374835 -0.478207
2010-10-21 13:46:46 51°30.11 2°59.22 20.6836 0.06433 0.375428 -0.478207
2010-10-21 13:47:46 51°29.952 2°59.076 20.7058 0.06433 0.374822 -0.478207
2010-10-21 13:48:46 51°29.785 2°58.96 20.6885 0.06433 0.375006 -0.478207
2010-10-21 13:49:46 51°29.62 2°58.838 20.718 0.06433 0.374493 -0.478207
2010-10-21 13:50:46 51°29.456 2°58.711 20.7419 0.06433 0.375138 -0.478207
2010-10-21 13:51:46 51°29.293 2°58.583 20.724 0.06433 0.374461 -0.478207
2010-10-21 13:52:46 51°29.133 2°58.456 20.7588 0.06433 0.375098 -0.478207
2010-10-21 13:53:46 51°28.971 2°58.34 20.7688 0.06433 0.374592 -0.478207
2010-10-21 13:54:46 51°28.808 2°58.214 20.7496 0.06433 0.375191 -0.478207
2010-10-21 13:55:46 51°28.644 2°58.095 20.7764 0.06433 0.374658 -0.443383
2010-10-21 13:56:46 51°28.48 2°57.968 20.7817 0.06433 0.374664 -0.443383
2010-10-21 13:57:46 51°28.314 2°57.835 20.7961 0.06433 0.374842 -0.478207
2010-10-21 13:58:46 51°28.149 2°57.702 20.8097 0.06433 0.374796 -0.443383
2010-10-21 13:59:46 51°27.984 2°57.58 20.8201 0.06433 0.375296 -0.478207
2010-10-21 14:00:46 51°27.815 2°57.452 20.7975 0.06433 0.375118 -0.478207
2010-10-21 14:01:46 51°27.647 2°57.323 20.8293 0.06433 0.375026 -0.443383
2010-10-21 14:02:46 51°27.48 2°57.192 20.8158 0.06433 0.375408 -0.443383
2010-10-21 14:03:46 51°27.313 2°57.057 20.835 0.06433 0.375448 -0.443383
2010-10-21 14:04:46 51°27.15 2°56.927 20.8557 0.06433 0.375046 -0.443383
2010-10-21 14:05:46 51°26.979 2°56.806 20.8626 0.06433 0.374507 -0.443383
2010-10-21 14:06:46 51°26.815 2°56.67 20.8652 0.06433 0.375052 -0.478207
2010-10-21 14:07:46 51°26.646 2°56.536 20.8713 0.06433 0.375257 -0.443383
2010-10-21 14:08:46 51°26.48 2°56.403 20.8701 0.06433 0.374625 -0.443383
2010-10-21 14:09:46 51°26.317 2°56.259 20.8828 0.06433 0.375052 -0.478207
2010-10-21 14:10:46 51°26.152 2°56.125 20.8947 0.06433 0.375164 -0.443383
2010-10-21 14:11:46 51°25.988 2°55.984 20.9017 0.06433 0.375263 -0.443383
2010-10-21 14:12:46 51°25.822 2°55.858 20.9135 0.06433 0.374572 -0.443383
2010-10-21 14:13:46 51°25.656 2°55.731 20.8917 0.06433 0.374244 -0.478207
2010-10-21 14:14:46 51°25.489 2°55.6 20.9232 0.06433 0.374829 -0.443383
2010-10-21 14:15:46 51°25.323 2°55.465 20.8985 0.06433 0.37527 -0.443383
2010-10-21 14:16:46 51°25.158 2°55.334 20.9274 0.06433 0.374382 -0.443383
2010-10-21 14:17:46 51°24.993 2°55.192 20.9273 0.06433 0.375415 -0.443383
2010-10-21 14:18:46 51°24.827 2°55.054 20.9359 0.06433 0.374875 -0.443383
2010-10-21 14:19:46 51°24.66 2°54.922 20.9366 0.064434 0.375455 -0.408559
2010-10-21 14:20:46 51°24.494 2°54.794 20.9557 0.06433 0.374967 -0.408559
2010-10-21 14:21:46 51°24.326 2°54.657 20.9556 0.06433 0.37498 -0.478207
2010-10-21 14:22:46 51°24.157 2°54.521 20.9697 0.06433 0.374967 -0.443383
2010-10-21 14:23:46 51°23.985 2°54.393 20.9679 0.06433 0.375092 -0.443383
2010-10-21 14:24:46 51°23.816 2°54.256 20.967 0.06433 0.374908 -0.478207
2010-10-21 14:25:46 51°23.645 2°54.121 20.9855 0.06433 0.374362 -0.478207
2010-10-21 14:26:46 51°23.473 2°53.993 20.9856 0.06433 0.375296 -0.478207
2010-10-21 14:27:46 51°23.301 2°53.868 20.9862 0.06433 0.375356 -0.478207
2010-10-21 14:28:46 51°23.13 2°53.736 20.9911 0.06433 0.374934 -0.443383
2010-10-21 14:29:46 51°22.961 2°53.595 21.0056 0.064434 0.374883 -0.443383
2010-10-21 14:30:46 51°22.788 2°53.463 21.0126 0.06433 0.375059 -0.443383
2010-10-21 14:31:46 51°22.614 2°53.327 21.0197 0.064434 0.37564 -0.443383
2010-10-21 14:32:46 51°22.435 2°53.211 21.0266 0.064434 0.375534 -0.443383
2010-10-21 14:33:46 51°22.247 2°53.142 21.0315 0.064434 0.375244 -0.408559
2010-10-21 14:34:46 51°22.056 2°53.073 21.0367 0.064434 0.375205 -0.443383
2010-10-21 14:35:46 51°21.865 2°52.998 21.0409 0.064434 0.375759 -0.443383
2010-10-21 14:36:46 51°21.674 2°52.92 21.044 0.064434 0.375488 -0.443383
2010-10-21 14:37:46 51°21.481 2°52.838 21.0512 0.064435 0.375937 -0.443383
2010-10-21 14:38:46 51°21.289 2°52.754 21.0582 0.064434 0.375778 -0.443383
2010-10-21 14:39:46 51°21.097 2°52.67 21.0652 0.064434 0.374975 -0.443383
2010-10-21 14:40:46 51°20.904 2°52.582 21.0729 0.064435 0.376029 -0.443383
2010-10-21 14:41:46 51°20.709 2°52.519 21.08 0.06433 0.374921 -0.443383
2010-10-21 14:42:46 51°20.511 2°52.47 21.0818 0.064434 0.375699 -0.478207
2010-10-21 14:43:46 51°20.31 2°52.446 21.086 0.064434 0.375501 -0.443383
2010-10-21 14:44:46 51°20.109 2°52.436 21.0903 0.064434 0.375712 -0.443383
2010-10-21 14:45:46 51°19.91 2°52.435 21.0942 0.064434 0.37562 -0.443383
2010-10-21 14:46:46 51°19.71 2°52.432 21.1005 0.064434 0.375468 -0.443383
2010-10-21 14:47:46 51°19.51 2°52.431 21.1073 0.064434 0.375739 -0.443383
2010-10-21 14:48:46 51°19.312 2°52.434 21.1114 0.064434 0.375726 -0.408559
2010-10-21 14:49:46 51°19.113 2°52.416 21.1145 0.064434 0.375534 -0.408559
2010-10-21 14:50:46 51°18.913 2°52.391 21.1247 0.064434 0.375337 -0.478207
2010-10-21 14:51:46 51°18.714 2°52.364 21.1265 0.064434 0.375449 -0.443383
2010-10-21 14:52:46 51°18.513 2°52.36 21.1345 0.064435 0.375944 -0.443383
2010-10-21 14:53:46 51°18.312 2°52.356 21.1379 0.064434 0.375323 -0.443383
2010-10-21 14:54:46 51°18.111 2°52.359 21.1509 0.064434 0.375547 -0.443383
2010-10-21 14:55:46 51°17.913 2°52.36 21.1543 0.064434 0.375574 -0.443383
2010-10-21 14:56:46 51°17.714 2°52.349 21.1543 0.064434 0.375745 -0.478207
2010-10-21 14:57:46 51°17.517 2°52.299 21.1671 0.064434 0.375106 -0.443383
2010-10-21 14:58:46 51°17.338 2°52.241 21.1729 0.064434 0.375146 -0.443383
2010-10-21 14:59:46 51°17.164 2°52.216 21.1773 0.064434 0.375633 -0.443383
2010-10-21 15:00:46 51°16.995 2°52.257 21.1724 0.064434 0.375666 -0.478207
2010-10-21 15:01:46 51°16.847 2°52.326 21.1804 0.064434 0.375047 -0.478207
2010-10-21 15:02:46 51°16.716 2°52.392 21.187 0.064539 0.375686 -0.478207
2010-10-21 15:03:46 51°16.599 2°52.447 21.1954 0.064539 0.375897 -0.443383
2010-10-21 15:04:46 51°16.489 2°52.506 21.1985 0.064539 0.376022 -0.408559
2010-10-21 15:05:46 51°16.389 2°52.615 21.2025 0.064539 0.376049 -0.443383
2010-10-21 15:06:46 51°16.302 2°52.753 21.2101 0.064539 0.375989 -0.443383
2010-10-21 15:07:46 51°16.214 2°52.889 21.217 0.064539 0.376135 -0.478207
2010-10-21 15:08:46 51°16.132 2°53.015 21.2274 0.064539 0.376003 -0.443383
2010-10-21 15:09:46 51°16.054 2°53.14 21.2279 0.064539 0.375989 -0.443383
2010-10-21 15:10:46 51°15.975 2°53.261 21.2272 0.064539 0.376042 -0.443383
2010-10-21 15:11:46 51°15.893 2°53.372 21.2375 0.064539 0.376108 -0.443383
2010-10-21 15:12:46 51°15.807 2°53.486 21.2409 0.064539 0.376095 -0.443383
2010-10-21 15:13:46 51°15.714 2°53.606 21.2409 0.064539 0.376141 -0.443383
2010-10-21 15:14:46 51°15.612 2°53.736 21.2422 0.064539 0.376174 -0.443383
2010-10-21 15:15:46 51°15.51 2°53.858 21.2538 0.064539 0.376161 -0.478207
2010-10-21 15:16:46 51°15.411 2°53.979 21.2526 0.064539 0.376267 -0.443383
2010-10-21 15:17:46 51°15.304 2°54.096 21.2694 0.064539 0.3763 -0.443383
2010-10-21 15:18:46 51°15.196 2°54.215 21.2692 0.064539 0.37626 -0.478207
2010-10-21 15:19:46 51°15.089 2°54.333 21.2639 0.064539 0.376326 -0.443383
2010-10-21 15:20:46 51°14.98 2°54.456 21.2712 0.064539 0.376399 -0.443383
2010-10-21 15:21:46 51°14.871 2°54.582 21.2816 0.064539 0.376439 -0.443383
2010-10-21 15:22:46 51°14.768 2°54.711 21.291 0.064539 0.376458 -0.443383
2010-10-21 15:23:46 51°14.663 2°54.836 21.2845 0.064539 0.376578 -0.478207
2010-10-21 15:24:46 51°14.55 2°54.964 21.2854 0.064539 0.376392 -0.443383
2010-10-21 15:25:46 51°14.434 2°55.098 21.3081 0.064435 0.375957 -0.443383
2010-10-21 15:26:46 51°14.319 2°55.223 21.3128 0.064435 0.37595 -0.443383
2010-10-21 15:27:46 51°14.207 2°55.332 21.3134 0.064435 0.37597 -0.478207
2010-10-21 15:28:46 51°14.093 2°55.422 21.3161 0.064435 0.376023 -0.443383
2010-10-21 15:29:46 51°13.987 2°55.504 21.3246 0.064435 0.376109 -0.478207
2010-10-21 15:30:46 51°13.891 2°55.579 21.3225 0.064435 0.376069 -0.443383
2010-10-21 15:31:46 51°13.799 2°55.657 21.3359 0.064435 0.376102 -0.443383
2010-10-21 15:32:46 51°13.726 2°55.77 21.3381 0.064435 0.376135 -0.443383
2010-10-21 15:33:46 51°13.674 2°55.885 21.3694 0.064435 0.376188 -0.443383
2010-10-21 15:34:46 51°13.662 2°55.958 21.3477 0.064435 0.376201 -0.443383